sensor_id;sensor_type;location;lat;lon;timestamp;pressure;altitude;pressure_sealevel;temperature
66180;BMP280;52986;44.028;20.466;2023-08-30T00:00:04;97094.81;;;17.76
66180;BMP280;52986;44.028;20.466;2023-08-30T00:02:29;97092.75;;;17.83
66180;BMP280;52986;44.028;20.466;2023-08-30T00:04:59;97089.53;;;17.84
66180;BMP280;52986;44.028;20.466;2023-08-30T00:07:24;97094.88;;;17.90
66180;BMP280;52986;44.028;20.466;2023-08-30T00:09:50;97091.00;;;17.85
66180;BMP280;52986;44.028;20.466;2023-08-30T00:12:15;97092.72;;;17.64
66180;BMP280;52986;44.028;20.466;2023-08-30T00:14:41;97083.81;;;17.44
66180;BMP280;52986;44.028;20.466;2023-08-30T00:17:06;97076.91;;;17.43
66180;BMP280;52986;44.028;20.466;2023-08-30T00:19:32;97069.56;;;17.44
66180;BMP280;52986;44.028;20.466;2023-08-30T00:21:57;97068.72;;;17.49
66180;BMP280;52986;44.028;20.466;2023-08-30T00:24:23;97069.72;;;17.52
66180;BMP280;52986;44.028;20.466;2023-08-30T00:26:48;97073.16;;;17.52
66180;BMP280;52986;44.028;20.466;2023-08-30T00:29:14;97076.66;;;17.47
66180;BMP280;52986;44.028;20.466;2023-08-30T00:31:39;97079.41;;;17.41
66180;BMP280;52986;44.028;20.466;2023-08-30T00:34:04;97073.09;;;17.33
66180;BMP280;52986;44.028;20.466;2023-08-30T00:36:30;97083.25;;;17.27
66180;BMP280;52986;44.028;20.466;2023-08-30T00:38:55;97078.63;;;17.22
66180;BMP280;52986;44.028;20.466;2023-08-30T00:41:21;97073.22;;;17.22
66180;BMP280;52986;44.028;20.466;2023-08-30T00:43:46;97086.06;;;17.16
66180;BMP280;52986;44.028;20.466;2023-08-30T00:46:12;97086.06;;;17.16
66180;BMP280;52986;44.028;20.466;2023-08-30T00:48:38;97082.31;;;17.19
66180;BMP280;52986;44.028;20.466;2023-08-30T00:51:04;97090.16;;;17.23
66180;BMP280;52986;44.028;20.466;2023-08-30T00:53:30;97092.81;;;17.28
66180;BMP280;52986;44.028;20.466;2023-08-30T00:55:55;97093.91;;;17.20
66180;BMP280;52986;44.028;20.466;2023-08-30T00:58:21;97089.56;;;17.11
66180;BMP280;52986;44.028;20.466;2023-08-30T01:00:46;97092.31;;;17.05
66180;BMP280;52986;44.028;20.466;2023-08-30T01:03:12;97102.38;;;17.05
66180;BMP280;52986;44.028;20.466;2023-08-30T01:05:38;97094.03;;;17.03
66180;BMP280;52986;44.028;20.466;2023-08-30T01:08:04;97097.28;;;17.01
66180;BMP280;52986;44.028;20.466;2023-08-30T01:11:09;97088.84;;;17.05
66180;BMP280;52986;44.028;20.466;2023-08-30T01:13:50;97097.44;;;17.09
66180;BMP280;52986;44.028;20.466;2023-08-30T01:16:18;97096.97;;;17.05
66180;BMP280;52986;44.028;20.466;2023-08-30T01:18:46;97100.91;;;17.04
66180;BMP280;52986;44.028;20.466;2023-08-30T01:21:23;97096.09;;;16.97
66180;BMP280;52986;44.028;20.466;2023-08-30T01:23:59;97100.22;;;16.98
66180;BMP280;52986;44.028;20.466;2023-08-30T01:29:25;97096.63;;;16.90
66180;BMP280;52986;44.028;20.466;2023-08-30T01:31:52;97100.09;;;16.85
66180;BMP280;52986;44.028;20.466;2023-08-30T01:34:18;97100.38;;;16.81
66180;BMP280;52986;44.028;20.466;2023-08-30T01:36:44;97092.03;;;16.79
66180;BMP280;52986;44.028;20.466;2023-08-30T01:39:10;97089.00;;;16.83
66180;BMP280;52986;44.028;20.466;2023-08-30T01:41:37;97094.97;;;16.81
66180;BMP280;52986;44.028;20.466;2023-08-30T01:44:05;97092.06;;;16.73
66180;BMP280;52986;44.028;20.466;2023-08-30T01:46:33;97099.16;;;16.76
66180;BMP280;52986;44.028;20.466;2023-08-30T01:49:01;97090.81;;;16.74
66180;BMP280;52986;44.028;20.466;2023-08-30T01:51:27;97091.75;;;16.77
66180;BMP280;52986;44.028;20.466;2023-08-30T01:53:54;97084.13;;;16.81
66180;BMP280;52986;44.028;20.466;2023-08-30T01:56:20;97085.16;;;16.78
66180;BMP280;52986;44.028;20.466;2023-08-30T01:58:46;97089.59;;;16.75
66180;BMP280;52986;44.028;20.466;2023-08-30T02:01:12;97085.44;;;16.69
66180;BMP280;52986;44.028;20.466;2023-08-30T02:03:37;97083.50;;;16.64
66180;BMP280;52986;44.028;20.466;2023-08-30T02:06:06;97070.22;;;16.71
66180;BMP280;52986;44.028;20.466;2023-08-30T02:11:13;97060.38;;;16.68
66180;BMP280;52986;44.028;20.466;2023-08-30T02:13:41;97057.53;;;16.55
66180;BMP280;52986;44.028;20.466;2023-08-30T02:16:08;97053.19;;;16.41
66180;BMP280;52986;44.028;20.466;2023-08-30T02:18:35;97052.78;;;16.26
66180;BMP280;52986;44.028;20.466;2023-08-30T02:21:01;97051.91;;;16.06
66180;BMP280;52986;44.028;20.466;2023-08-30T02:23:26;97049.75;;;15.94
66180;BMP280;52986;44.028;20.466;2023-08-30T02:25:54;97051.22;;;15.95
66180;BMP280;52986;44.028;20.466;2023-08-30T02:28:19;97048.50;;;16.00
66180;BMP280;52986;44.028;20.466;2023-08-30T02:30:45;97039.13;;;16.13
66180;BMP280;52986;44.028;20.466;2023-08-30T02:33:10;97056.84;;;16.02
66180;BMP280;52986;44.028;20.466;2023-08-30T02:35:35;97035.53;;;15.88
66180;BMP280;52986;44.028;20.466;2023-08-30T02:38:01;97031.13;;;15.90
66180;BMP280;52986;44.028;20.466;2023-08-30T02:40:30;97035.75;;;15.95
66180;BMP280;52986;44.028;20.466;2023-08-30T02:42:55;97037.50;;;15.93
66180;BMP280;52986;44.028;20.466;2023-08-30T02:45:21;97043.63;;;15.93
66180;BMP280;52986;44.028;20.466;2023-08-30T02:47:48;97054.94;;;15.86
66180;BMP280;52986;44.028;20.466;2023-08-30T02:50:13;97045.16;;;15.72
66180;BMP280;52986;44.028;20.466;2023-08-30T02:52:39;97032.09;;;15.87
66180;BMP280;52986;44.028;20.466;2023-08-30T02:55:05;97042.69;;;15.85
66180;BMP280;52986;44.028;20.466;2023-08-30T02:57:30;97042.66;;;15.91
66180;BMP280;52986;44.028;20.466;2023-08-30T02:59:55;97047.31;;;15.90
66180;BMP280;52986;44.028;20.466;2023-08-30T03:02:21;97045.09;;;15.94
66180;BMP280;52986;44.028;20.466;2023-08-30T03:04:46;97040.94;;;15.93
66180;BMP280;52986;44.028;20.466;2023-08-30T03:07:12;97039.41;;;15.98
66180;BMP280;52986;44.028;20.466;2023-08-30T03:09:37;97042.59;;;16.02
66180;BMP280;52986;44.028;20.466;2023-08-30T03:12:04;97046.25;;;16.04
66180;BMP280;52986;44.028;20.466;2023-08-30T03:14:29;97048.94;;;16.04
66180;BMP280;52986;44.028;20.466;2023-08-30T03:16:55;97048.00;;;16.07
66180;BMP280;52986;44.028;20.466;2023-08-30T03:19:20;97046.03;;;16.02
66180;BMP280;52986;44.028;20.466;2023-08-30T03:21:45;97044.09;;;15.97
66180;BMP280;52986;44.028;20.466;2023-08-30T03:24:11;97050.00;;;15.96
66180;BMP280;52986;44.028;20.466;2023-08-30T03:26:36;97055.91;;;15.94
66180;BMP280;52986;44.028;20.466;2023-08-30T03:29:02;97044.09;;;15.97
66180;BMP280;52986;44.028;20.466;2023-08-30T03:31:28;97039.41;;;15.98
66180;BMP280;52986;44.028;20.466;2023-08-30T03:33:53;97042.78;;;16.09
66180;BMP280;52986;44.028;20.466;2023-08-30T03:36:19;97045.03;;;16.11
66180;BMP280;52986;44.028;20.466;2023-08-30T03:38:45;97057.31;;;16.12
66180;BMP280;52986;44.028;20.466;2023-08-30T03:41:11;97050.66;;;16.13
66180;BMP280;52986;44.028;20.466;2023-08-30T03:43:37;97054.78;;;16.20
66180;BMP280;52986;44.028;20.466;2023-08-30T03:46:03;97053.03;;;16.28
66180;BMP280;52986;44.028;20.466;2023-08-30T03:48:29;97051.53;;;16.32
66180;BMP280;52986;44.028;20.466;2023-08-30T03:50:55;97065.78;;;16.33
66180;BMP280;52986;44.028;20.466;2023-08-30T03:53:20;97065.78;;;16.33
66180;BMP280;52986;44.028;20.466;2023-08-30T03:55:46;97065.78;;;16.33
66180;BMP280;52986;44.028;20.466;2023-08-30T03:58:11;97070.41;;;16.38
66180;BMP280;52986;44.028;20.466;2023-08-30T04:00:38;97070.22;;;16.30
66180;BMP280;52986;44.028;20.466;2023-08-30T04:03:07;97073.66;;;16.25
66180;BMP280;52986;44.028;20.466;2023-08-30T04:05:34;97070.22;;;16.25
66180;BMP280;52986;44.028;20.466;2023-08-30T04:08:00;97068.03;;;16.29
66180;BMP280;52986;44.028;20.466;2023-08-30T04:10:26;97074.38;;;16.31
66180;BMP280;52986;44.028;20.466;2023-08-30T04:12:51;97077.56;;;16.35
66180;BMP280;52986;44.028;20.466;2023-08-30T04:15:16;97080.88;;;16.53
66180;BMP280;52986;44.028;20.466;2023-08-30T04:17:42;97087.69;;;16.65
66180;BMP280;52986;44.028;20.466;2023-08-30T04:20:08;97087.38;;;16.74
66180;BMP280;52986;44.028;20.466;2023-08-30T04:22:35;97090.75;;;16.86
66180;BMP280;52986;44.028;20.466;2023-08-30T04:25:01;97095.03;;;17.00
66180;BMP280;52986;44.028;20.466;2023-08-30T04:27:26;97102.88;;;17.03
66180;BMP280;52986;44.028;20.466;2023-08-30T04:29:52;97106.78;;;17.08
66180;BMP280;52986;44.028;20.466;2023-08-30T04:32:18;97100.28;;;17.22
66180;BMP280;52986;44.028;20.466;2023-08-30T04:34:43;97102.94;;;17.28
66180;BMP280;52986;44.028;20.466;2023-08-30T04:37:08;97120.13;;;17.30
66180;BMP280;52986;44.028;20.466;2023-08-30T04:39:34;97126.97;;;17.37
66180;BMP280;52986;44.028;20.466;2023-08-30T04:41:59;97122.28;;;17.37
66180;BMP280;52986;44.028;20.466;2023-08-30T04:44:25;97130.69;;;17.34
66180;BMP280;52986;44.028;20.466;2023-08-30T04:46:53;97132.50;;;17.26
66180;BMP280;52986;44.028;20.466;2023-08-30T04:49:19;97136.72;;;17.21
66180;BMP280;52986;44.028;20.466;2023-08-30T04:51:44;97123.22;;;17.16
66180;BMP280;52986;44.028;20.466;2023-08-30T04:54:09;97127.34;;;17.22
66180;BMP280;52986;44.028;20.466;2023-08-30T04:56:35;97117.88;;;17.34
66180;BMP280;52986;44.028;20.466;2023-08-30T04:59:00;97110.91;;;17.44
66180;BMP280;52986;44.028;20.466;2023-08-30T05:01:31;97106.44;;;17.47
66180;BMP280;52986;44.028;20.466;2023-08-30T05:03:57;97112.50;;;17.53
66180;BMP280;52986;44.028;20.466;2023-08-30T05:06:22;97115.16;;;17.59
66180;BMP280;52986;44.028;20.466;2023-08-30T05:08:47;97123.97;;;17.65
66180;BMP280;52986;44.028;20.466;2023-08-30T05:11:13;97121.81;;;17.82
66180;BMP280;52986;44.028;20.466;2023-08-30T05:13:38;97119.72;;;18.12
66180;BMP280;52986;44.028;20.466;2023-08-30T05:16:04;97120.97;;;18.30
66180;BMP280;52986;44.028;20.466;2023-08-30T05:18:29;97124.22;;;18.48
66180;BMP280;52986;44.028;20.466;2023-08-30T05:20:55;97132.53;;;18.50
66180;BMP280;52986;44.028;20.466;2023-08-30T05:23:20;97122.75;;;18.46
66180;BMP280;52986;44.028;20.466;2023-08-30T05:25:46;97126.25;;;18.41
66180;BMP280;52986;44.028;20.466;2023-08-30T05:28:12;97137.53;;;18.45
66180;BMP280;52986;44.028;20.466;2023-08-30T05:30:41;97140.31;;;18.40
66180;BMP280;52986;44.028;20.466;2023-08-30T05:33:07;97141.41;;;18.31
66180;BMP280;52986;44.028;20.466;2023-08-30T05:35:32;97150.78;;;18.11
66180;BMP280;52986;44.028;20.466;2023-08-30T05:37:58;97151.19;;;17.97
66180;BMP280;52986;44.028;20.466;2023-08-30T05:40:23;97150.53;;;17.91
66180;BMP280;52986;44.028;20.466;2023-08-30T05:42:49;97147.31;;;17.92
66180;BMP280;52986;44.028;20.466;2023-08-30T05:45:15;97162.28;;;17.99
66180;BMP280;52986;44.028;20.466;2023-08-30T05:47:41;97161.63;;;17.93
66180;BMP280;52986;44.028;20.466;2023-08-30T05:50:06;97161.91;;;18.08
66180;BMP280;52986;44.028;20.466;2023-08-30T05:52:32;97156.94;;;18.12
66180;BMP280;52986;44.028;20.466;2023-08-30T05:54:57;97166.53;;;18.13
66180;BMP280;52986;44.028;20.466;2023-08-30T05:57:23;97158.69;;;18.09
66180;BMP280;52986;44.028;20.466;2023-08-30T05:59:50;97165.63;;;18.10
66180;BMP280;52986;44.028;20.466;2023-08-30T06:02:15;97157.47;;;18.10
66180;BMP280;52986;44.028;20.466;2023-08-30T06:04:40;97157.38;;;18.16
66180;BMP280;52986;44.028;20.466;2023-08-30T06:07:06;97168.97;;;18.17
66180;BMP280;52986;44.028;20.466;2023-08-30T06:09:31;97167.34;;;18.27
66180;BMP280;52986;44.028;20.466;2023-08-30T06:11:56;97171.41;;;18.39
66180;BMP280;52986;44.028;20.466;2023-08-30T06:14:22;97173.03;;;18.48
66180;BMP280;52986;44.028;20.466;2023-08-30T06:16:47;97172.88;;;18.59
66180;BMP280;52986;44.028;20.466;2023-08-30T06:19:14;97167.34;;;18.64
66180;BMP280;52986;44.028;20.466;2023-08-30T06:21:39;97160.44;;;18.63
66180;BMP280;52986;44.028;20.466;2023-08-30T06:24:04;97163.03;;;18.56
66180;BMP280;52986;44.028;20.466;2023-08-30T06:26:30;97162.13;;;18.53
66180;BMP280;52986;44.028;20.466;2023-08-30T06:28:55;97165.06;;;18.68
66180;BMP280;52986;44.028;20.466;2023-08-30T06:31:21;97161.41;;;18.85
66180;BMP280;52986;44.028;20.466;2023-08-30T06:33:46;97163.50;;;18.92
66180;BMP280;52986;44.028;20.466;2023-08-30T06:36:13;97155.56;;;18.94
66180;BMP280;52986;44.028;20.466;2023-08-30T06:38:41;97147.69;;;19.09
66180;BMP280;52986;44.028;20.466;2023-08-30T06:41:06;97143.31;;;19.19
66180;BMP280;52986;44.028;20.466;2023-08-30T06:43:32;97158.16;;;19.31
66180;BMP280;52986;44.028;20.466;2023-08-30T06:45:58;97162.19;;;19.43
66180;BMP280;52986;44.028;20.466;2023-08-30T06:48:24;97168.63;;;19.67
66180;BMP280;52986;44.028;20.466;2023-08-30T06:50:49;97173.66;;;19.76
66180;BMP280;52986;44.028;20.466;2023-08-30T06:53:15;97167.38;;;19.94
66180;BMP280;52986;44.028;20.466;2023-08-30T06:55:40;97171.25;;;19.99
66180;BMP280;52986;44.028;20.466;2023-08-30T06:58:05;97179.41;;;20.12
66180;BMP280;52986;44.028;20.466;2023-08-30T07:00:31;97178.44;;;20.09
66180;BMP280;52986;44.028;20.466;2023-08-30T07:02:56;97171.13;;;20.17
66180;BMP280;52986;44.028;20.466;2023-08-30T07:05:22;97175.66;;;20.36
66180;BMP280;52986;44.028;20.466;2023-08-30T07:07:47;97176.25;;;20.76
66180;BMP280;52986;44.028;20.466;2023-08-30T07:10:13;97172.56;;;21.64
66180;BMP280;52986;44.028;20.466;2023-08-30T07:12:38;97173.06;;;23.41
66180;BMP280;52986;44.028;20.466;2023-08-30T07:15:04;97184.31;;;27.41
66180;BMP280;52986;44.028;20.466;2023-08-30T07:17:30;97175.84;;;30.23
66180;BMP280;52986;44.028;20.466;2023-08-30T07:19:55;97175.94;;;32.14
66180;BMP280;52986;44.028;20.466;2023-08-30T07:22:20;97172.53;;;34.58
66180;BMP280;52986;44.028;20.466;2023-08-30T07:24:46;97184.31;;;35.67
66180;BMP280;52986;44.028;20.466;2023-08-30T07:27:11;97167.44;;;36.89
66180;BMP280;52986;44.028;20.466;2023-08-30T07:29:39;97171.44;;;35.57
66180;BMP280;52986;44.028;20.466;2023-08-30T07:32:08;97178.81;;;34.76
66180;BMP280;52986;44.028;20.466;2023-08-30T07:34:34;97158.50;;;34.56
66180;BMP280;52986;44.028;20.466;2023-08-30T07:36:59;97157.16;;;32.26
66180;BMP280;52986;44.028;20.466;2023-08-30T07:39:25;97155.22;;;30.61
66180;BMP280;52986;44.028;20.466;2023-08-30T07:41:50;97181.94;;;30.33
66180;BMP280;52986;44.028;20.466;2023-08-30T07:44:15;97168.13;;;33.55
66180;BMP280;52986;44.028;20.466;2023-08-30T07:46:41;97166.94;;;35.11
66180;BMP280;52986;44.028;20.466;2023-08-30T07:49:07;97161.78;;;35.03
66180;BMP280;52986;44.028;20.466;2023-08-30T07:51:32;97159.69;;;33.37
66180;BMP280;52986;44.028;20.466;2023-08-30T07:53:57;97165.47;;;32.12
66180;BMP280;52986;44.028;20.466;2023-08-30T07:56:23;97171.44;;;31.93
66180;BMP280;52986;44.028;20.466;2023-08-30T07:58:48;97188.53;;;32.71
66180;BMP280;52986;44.028;20.466;2023-08-30T08:01:13;97186.19;;;35.80
66180;BMP280;52986;44.028;20.466;2023-08-30T08:03:39;97182.50;;;38.30
66180;BMP280;52986;44.028;20.466;2023-08-30T08:06:06;97193.34;;;39.41
66180;BMP280;52986;44.028;20.466;2023-08-30T08:08:31;97192.16;;;39.50
66180;BMP280;52986;44.028;20.466;2023-08-30T08:10:59;97192.19;;;40.84
66180;BMP280;52986;44.028;20.466;2023-08-30T08:13:24;97187.66;;;41.13
66180;BMP280;52986;44.028;20.466;2023-08-30T08:15:49;97182.19;;;42.03
66180;BMP280;52986;44.028;20.466;2023-08-30T08:18:15;97181.47;;;41.99
66180;BMP280;52986;44.028;20.466;2023-08-30T08:20:40;97179.09;;;42.67
66180;BMP280;52986;44.028;20.466;2023-08-30T08:23:06;97182.56;;;41.65
66180;BMP280;52986;44.028;20.466;2023-08-30T08:25:31;97185.63;;;41.92
66180;BMP280;52986;44.028;20.466;2023-08-30T08:27:56;97185.41;;;42.58
66180;BMP280;52986;44.028;20.466;2023-08-30T08:30:22;97172.84;;;42.87
66180;BMP280;52986;44.028;20.466;2023-08-30T08:32:47;97168.28;;;42.22
66180;BMP280;52986;44.028;20.466;2023-08-30T08:35:13;97170.75;;;42.88
66180;BMP280;52986;44.028;20.466;2023-08-30T08:37:39;97174.31;;;41.16
66180;BMP280;52986;44.028;20.466;2023-08-30T08:40:05;97169.72;;;42.29
66180;BMP280;52986;44.028;20.466;2023-08-30T08:42:34;97164.97;;;42.57
66180;BMP280;52986;44.028;20.466;2023-08-30T08:45:04;97158.16;;;43.25
66180;BMP280;52986;44.028;20.466;2023-08-30T08:47:30;97156.06;;;43.40
66180;BMP280;52986;44.028;20.466;2023-08-30T08:49:56;97160.56;;;42.28
66180;BMP280;52986;44.028;20.466;2023-08-30T08:52:23;97157.78;;;42.36
66180;BMP280;52986;44.028;20.466;2023-08-30T08:54:49;97146.88;;;43.33
66180;BMP280;52986;44.028;20.466;2023-08-30T08:57:16;97158.22;;;43.67
66180;BMP280;52986;44.028;20.466;2023-08-30T08:59:41;97155.22;;;42.87
66180;BMP280;52986;44.028;20.466;2023-08-30T09:02:10;97153.97;;;43.78
66180;BMP280;52986;44.028;20.466;2023-08-30T09:04:37;97152.53;;;43.31
66180;BMP280;52986;44.028;20.466;2023-08-30T09:07:04;97153.97;;;43.66
66180;BMP280;52986;44.028;20.466;2023-08-30T09:09:29;97155.22;;;42.91
66180;BMP280;52986;44.028;20.466;2023-08-30T09:11:55;97155.13;;;41.62
66180;BMP280;52986;44.028;20.466;2023-08-30T09:14:21;97152.84;;;42.33
66180;BMP280;52986;44.028;20.466;2023-08-30T09:19:21;97149.66;;;43.11
66180;BMP280;52986;44.028;20.466;2023-08-30T09:21:54;97174.72;;;42.42
66180;BMP280;52986;44.028;20.466;2023-08-30T09:24:20;97160.78;;;42.70
66180;BMP280;52986;44.028;20.466;2023-08-30T09:26:53;97158.56;;;41.54
66180;BMP280;52986;44.028;20.466;2023-08-30T09:29:20;97154.63;;;41.86
66180;BMP280;52986;44.028;20.466;2023-08-30T09:31:46;97164.72;;;40.79
66180;BMP280;52986;44.028;20.466;2023-08-30T09:34:12;97153.28;;;41.95
66180;BMP280;52986;44.028;20.466;2023-08-30T09:36:41;97152.72;;;41.34
66180;BMP280;52986;44.028;20.466;2023-08-30T09:39:11;97144.50;;;41.56
66180;BMP280;52986;44.028;20.466;2023-08-30T09:41:41;97145.47;;;41.15
66180;BMP280;52986;44.028;20.466;2023-08-30T09:44:09;97131.34;;;43.22
66180;BMP280;52986;44.028;20.466;2023-08-30T09:46:41;97137.00;;;43.28
66180;BMP280;52986;44.028;20.466;2023-08-30T09:49:06;97135.59;;;43.37
66180;BMP280;52986;44.028;20.466;2023-08-30T09:51:33;97128.94;;;41.47
66180;BMP280;52986;44.028;20.466;2023-08-30T09:54:04;97131.81;;;41.53
66180;BMP280;52986;44.028;20.466;2023-08-30T09:56:31;97131.38;;;43.48
66180;BMP280;52986;44.028;20.466;2023-08-30T09:58:58;97131.25;;;42.82
66180;BMP280;52986;44.028;20.466;2023-08-30T10:01:27;97138.31;;;42.91
66180;BMP280;52986;44.028;20.466;2023-08-30T10:03:55;97130.56;;;42.91
66180;BMP280;52986;44.028;20.466;2023-08-30T10:06:24;97132.00;;;41.74
66180;BMP280;52986;44.028;20.466;2023-08-30T10:08:51;97125.88;;;42.03
66180;BMP280;52986;44.028;20.466;2023-08-30T10:11:18;97132.59;;;41.62
66180;BMP280;52986;44.028;20.466;2023-08-30T10:13:44;97134.56;;;40.83
66180;BMP280;52986;44.028;20.466;2023-08-30T10:16:12;97134.28;;;40.63
66180;BMP280;52986;44.028;20.466;2023-08-30T10:18:40;97132.00;;;40.49
66180;BMP280;52986;44.028;20.466;2023-08-30T10:21:11;97122.78;;;39.97
66180;BMP280;52986;44.028;20.466;2023-08-30T10:23:38;97129.97;;;38.92
66180;BMP280;52986;44.028;20.466;2023-08-30T10:26:05;97130.72;;;38.95
66180;BMP280;52986;44.028;20.466;2023-08-30T10:28:32;97119.88;;;39.89
66180;BMP280;52986;44.028;20.466;2023-08-30T10:30:58;97123.22;;;39.39
66180;BMP280;52986;44.028;20.466;2023-08-30T10:33:24;97122.06;;;39.17
66180;BMP280;52986;44.028;20.466;2023-08-30T10:35:51;97127.06;;;38.55
66180;BMP280;52986;44.028;20.466;2023-08-30T10:38:29;97124.47;;;38.05
66180;BMP280;52986;44.028;20.466;2023-08-30T10:40:55;97125.53;;;38.49
66180;BMP280;52986;44.028;20.466;2023-08-30T10:43:33;97114.63;;;39.69
66180;BMP280;52986;44.028;20.466;2023-08-30T10:46:03;97114.06;;;40.75
66180;BMP280;52986;44.028;20.466;2023-08-30T10:48:39;97113.84;;;40.56
66180;BMP280;52986;44.028;20.466;2023-08-30T10:51:19;97108.41;;;40.71
66180;BMP280;52986;44.028;20.466;2023-08-30T10:53:58;97108.94;;;39.65
66180;BMP280;52986;44.028;20.466;2023-08-30T10:56:30;97099.81;;;39.67
66180;BMP280;52986;44.028;20.466;2023-08-30T10:58:56;97100.09;;;39.05
66180;BMP280;52986;44.028;20.466;2023-08-30T11:01:22;97099.03;;;39.60
66180;BMP280;52986;44.028;20.466;2023-08-30T11:03:49;97094.63;;;39.91
66180;BMP280;52986;44.028;20.466;2023-08-30T11:06:14;97096.63;;;40.82
66180;BMP280;52986;44.028;20.466;2023-08-30T11:08:41;97095.53;;;41.11
66180;BMP280;52986;44.028;20.466;2023-08-30T11:11:07;97090.19;;;41.42
66180;BMP280;52986;44.028;20.466;2023-08-30T11:13:34;97103.28;;;40.53
66180;BMP280;52986;44.028;20.466;2023-08-30T11:16:03;97080.63;;;38.43
66180;BMP280;52986;44.028;20.466;2023-08-30T11:18:39;97101.84;;;35.59
66180;BMP280;52986;44.028;20.466;2023-08-30T11:21:05;97098.88;;;34.43
66180;BMP280;52986;44.028;20.466;2023-08-30T11:23:31;97095.53;;;35.20
66180;BMP280;52986;44.028;20.466;2023-08-30T11:25:58;97096.63;;;35.50
66180;BMP280;52986;44.028;20.466;2023-08-30T11:28:24;97086.84;;;36.55
66180;BMP280;52986;44.028;20.466;2023-08-30T11:30:52;97090.94;;;36.76
66180;BMP280;52986;44.028;20.466;2023-08-30T11:33:18;97079.44;;;37.65
66180;BMP280;52986;44.028;20.466;2023-08-30T11:35:49;97081.16;;;37.78
66180;BMP280;52986;44.028;20.466;2023-08-30T11:38:14;97080.31;;;38.31
66180;BMP280;52986;44.028;20.466;2023-08-30T11:40:40;97084.16;;;38.16
66180;BMP280;52986;44.028;20.466;2023-08-30T11:43:06;97080.38;;;38.03
66180;BMP280;52986;44.028;20.466;2023-08-30T11:45:32;97070.88;;;37.87
66180;BMP280;52986;44.028;20.466;2023-08-30T11:48:01;97073.06;;;37.09
66180;BMP280;52986;44.028;20.466;2023-08-30T11:50:28;97079.38;;;35.95
66180;BMP280;52986;44.028;20.466;2023-08-30T11:52:54;97072.84;;;34.90
66180;BMP280;52986;44.028;20.466;2023-08-30T11:55:22;97069.31;;;35.07
66180;BMP280;52986;44.028;20.466;2023-08-30T11:57:49;97071.81;;;35.58
66180;BMP280;52986;44.028;20.466;2023-08-30T12:00:18;97072.09;;;36.07
66180;BMP280;52986;44.028;20.466;2023-08-30T12:02:45;97065.97;;;35.30
66180;BMP280;52986;44.028;20.466;2023-08-30T12:05:14;97072.97;;;34.56
66180;BMP280;52986;44.028;20.466;2023-08-30T12:07:41;97069.47;;;33.38
66180;BMP280;52986;44.028;20.466;2023-08-30T12:10:08;97065.31;;;32.76
66180;BMP280;52986;44.028;20.466;2023-08-30T12:12:33;97069.13;;;32.85
66180;BMP280;52986;44.028;20.466;2023-08-30T12:15:07;97063.94;;;32.77
66180;BMP280;52986;44.028;20.466;2023-08-30T12:17:34;97061.66;;;32.29
66180;BMP280;52986;44.028;20.466;2023-08-30T12:20:00;97064.56;;;32.04
66180;BMP280;52986;44.028;20.466;2023-08-30T12:25:19;97062.84;;;32.39
66180;BMP280;52986;44.028;20.466;2023-08-30T12:27:46;97062.09;;;32.53
66180;BMP280;52986;44.028;20.466;2023-08-30T12:30:15;97067.06;;;32.27
66180;BMP280;52986;44.028;20.466;2023-08-30T12:32:42;97059.16;;;32.35
66180;BMP280;52986;44.028;20.466;2023-08-30T12:35:08;97054.34;;;32.80
66180;BMP280;52986;44.028;20.466;2023-08-30T12:37:34;97061.88;;;32.49
66180;BMP280;52986;44.028;20.466;2023-08-30T12:40:00;97057.38;;;31.98
66180;BMP280;52986;44.028;20.466;2023-08-30T12:42:25;97047.44;;;31.66
66180;BMP280;52986;44.028;20.466;2023-08-30T12:44:51;97051.84;;;31.98
66180;BMP280;52986;44.028;20.466;2023-08-30T12:47:17;97063.66;;;31.58
66180;BMP280;52986;44.028;20.466;2023-08-30T12:49:42;97049.91;;;31.74
66180;BMP280;52986;44.028;20.466;2023-08-30T12:52:07;97046.06;;;32.22
66180;BMP280;52986;44.028;20.466;2023-08-30T12:54:33;97048.75;;;31.92
66180;BMP280;52986;44.028;20.466;2023-08-30T12:56:58;97041.59;;;31.74
66180;BMP280;52986;44.028;20.466;2023-08-30T12:59:24;97063.16;;;31.23
66180;BMP280;52986;44.028;20.466;2023-08-30T13:01:49;97053.41;;;31.22
66180;BMP280;52986;44.028;20.466;2023-08-30T13:04:15;97056.28;;;31.24
66180;BMP280;52986;44.028;20.466;2023-08-30T13:06:40;97055.00;;;31.52
66180;BMP280;52986;44.028;20.466;2023-08-30T13:09:05;97062.69;;;31.40
66180;BMP280;52986;44.028;20.466;2023-08-30T13:11:31;97053.47;;;30.96
66180;BMP280;52986;44.028;20.466;2023-08-30T13:13:58;97064.25;;;30.53
66180;BMP280;52986;44.028;20.466;2023-08-30T13:16:24;97056.13;;;30.32
66180;BMP280;52986;44.028;20.466;2023-08-30T13:18:49;97054.75;;;30.45
66180;BMP280;52986;44.028;20.466;2023-08-30T13:21:15;97054.97;;;30.49
66180;BMP280;52986;44.028;20.466;2023-08-30T13:23:40;97055.66;;;30.24
66180;BMP280;52986;44.028;20.466;2023-08-30T13:26:06;97051.31;;;30.33
66180;BMP280;52986;44.028;20.466;2023-08-30T13:28:31;97056.44;;;30.50
66180;BMP280;52986;44.028;20.466;2023-08-30T13:30:57;97057.22;;;30.27
66180;BMP280;52986;44.028;20.466;2023-08-30T13:33:22;97059.41;;;30.05
66180;BMP280;52986;44.028;20.466;2023-08-30T13:35:51;97058.72;;;30.05
66180;BMP280;52986;44.028;20.466;2023-08-30T13:38:17;97058.44;;;30.12
66180;BMP280;52986;44.028;20.466;2023-08-30T13:40:42;97060.28;;;29.96
66180;BMP280;52986;44.028;20.466;2023-08-30T13:43:08;97059.19;;;29.78
66180;BMP280;52986;44.028;20.466;2023-08-30T13:45:33;97063.63;;;29.83
66180;BMP280;52986;44.028;20.466;2023-08-30T13:47:58;97063.13;;;29.87
66180;BMP280;52986;44.028;20.466;2023-08-30T13:50:24;97064.06;;;30.14
66180;BMP280;52986;44.028;20.466;2023-08-30T13:52:55;97068.91;;;30.02
66180;BMP280;52986;44.028;20.466;2023-08-30T13:55:20;97065.91;;;29.98
66180;BMP280;52986;44.028;20.466;2023-08-30T13:57:46;97062.03;;;30.03
66180;BMP280;52986;44.028;20.466;2023-08-30T14:00:12;97059.66;;;29.98
66180;BMP280;52986;44.028;20.466;2023-08-30T14:02:38;97055.97;;;29.70